Time;durP1;ratioP1;P1;durP2;ratioP2;P2;SDS_P1;SDS_P2;PMS_P1;PMS_P2;Temp;Humidity;BMP_temperature;BMP_pressure;BME280_temperature;BME280_humidity;BME280_pressure;Samples;Min_cycle;Max_cycle;Signal;HPM_P1;HPM_P2
2022/05/02 00:00:41;;;;;;;4.90;2.40;;;;;;;;;;5100418;28;20032;-84
2022/05/02 00:03:07;;;;;;;4.18;2.20;;;;;;;;;;5100694;28;20051;-84
2022/05/02 00:05:33;;;;;;;3.08;2.58;;;;;;;;;;5099399;28;20029;-84
2022/05/02 00:07:59;;;;;;;6.07;2.97;;;;;;;;;;5099218;28;20203;-84
2022/05/02 00:13:29;;;;;;;5.00;2.65;;;;;;;;;;5100246;28;20043;-83
2022/05/02 00:15:55;;;;;;;4.55;2.70;;;;;;;;;;5099150;28;20023;-82
2022/05/02 00:18:21;;;;;;;8.63;4.40;;;;;;;;;;5099043;28;20074;-83
2022/05/02 00:20:47;;;;;;;6.78;4.50;;;;;;;;;;5099864;28;20414;-82
2022/05/02 00:23:13;;;;;;;7.15;4.07;;;;;;;;;;5100056;28;20055;-82
2022/05/02 00:28:43;;;;;;;5.45;3.08;;;;;;;;;;5099153;28;20034;-83
2022/05/02 00:31:09;;;;;;;4.38;3.28;;;;;;;;;;5099935;28;20425;-83
2022/05/02 00:33:35;;;;;;;5.72;3.10;;;;;;;;;;5099834;28;20417;-82
2022/05/02 00:36:01;;;;;;;5.57;3.08;;;;;;;;;;5099496;28;20028;-82
2022/05/02 00:38:27;;;;;;;5.32;2.92;;;;;;;;;;5099792;28;20024;-82
2022/05/02 00:40:54;;;;;;;6.30;3.15;;;;;;;;;;5099846;28;20161;-82
2022/05/02 00:43:20;;;;;;;4.78;3.20;;;;;;;;;;5099634;28;20020;-83
2022/05/02 00:45:46;;;;;;;5.80;3.25;;;;;;;;;;5099607;28;20103;-82
2022/05/02 00:48:12;;;;;;;4.55;3.70;;;;;;;;;;5098584;28;20418;-82
2022/05/02 00:50:42;;;;;;;4.93;3.30;;;;;;;;;;5099485;28;20043;-82
2022/05/02 00:53:09;;;;;;;7.57;3.58;;;;;;;;;;5099551;28;20030;-83
2022/05/02 00:55:35;;;;;;;4.47;3.60;;;;;;;;;;5099857;28;20078;-82
2022/05/02 00:58:02;;;;;;;5.43;3.30;;;;;;;;;;5098486;28;20028;-82
2022/05/02 01:00:29;;;;;;;5.60;2.97;;;;;;;;;;5099213;28;20032;-82
2022/05/02 01:02:55;;;;;;;5.55;3.45;;;;;;;;;;5099440;28;20036;-82
2022/05/02 01:05:21;;;;;;;5.93;3.28;;;;;;;;;;5098205;28;20024;-82
2022/05/02 01:07:47;;;;;;;6.05;3.47;;;;;;;;;;5099221;28;20051;-82
2022/05/02 01:10:17;;;;;;;5.65;3.75;;;;;;;;;;5099176;28;20069;-82
2022/05/02 01:12:43;;;;;;;4.95;3.60;;;;;;;;;;5098912;28;20064;-82
2022/05/02 01:15:09;;;;;;;7.00;4.00;;;;;;;;;;5099014;28;20020;-82
2022/05/02 01:17:37;;;;;;;5.50;3.80;;;;;;;;;;5097991;28;20028;-82
2022/05/02 01:20:07;;;;;;;6.30;3.95;;;;;;;;;;5098831;28;20414;-82
2022/05/02 01:22:33;;;;;;;5.35;4.05;;;;;;;;;;5098846;28;20024;-83
2022/05/02 01:24:59;;;;;;;6.18;3.70;;;;;;;;;;5098797;28;20024;-82
2022/05/02 01:27:25;;;;;;;5.82;3.70;;;;;;;;;;5098829;28;20028;-82
2022/05/02 01:29:51;;;;;;;5.80;3.63;;;;;;;;;;5098717;28;20020;-82
2022/05/02 01:32:17;;;;;;;6.00;4.07;;;;;;;;;;5097659;28;20136;-82
2022/05/02 01:34:44;;;;;;;4.70;3.53;;;;;;;;;;5098833;28;20024;-82
2022/05/02 01:37:11;;;;;;;4.72;3.85;;;;;;;;;;5098588;28;20373;-82
2022/05/02 01:39:37;;;;;;;7.53;4.32;;;;;;;;;;5097650;28;20058;-82
2022/05/02 01:42:04;;;;;;;12.75;4.40;;;;;;;;;;5098586;28;20023;-82
2022/05/02 01:44:30;;;;;;;6.00;5.00;;;;;;;;;;5098280;28;20028;-82
2022/05/02 01:46:57;;;;;;;5.95;4.25;;;;;;;;;;5098727;28;20028;-82
2022/05/02 01:49:23;;;;;;;5.47;4.38;;;;;;;;;;5097002;28;20096;-82
2022/05/02 01:51:49;;;;;;;8.63;4.85;;;;;;;;;;5098348;28;20402;-82
2022/05/02 01:54:15;;;;;;;5.25;3.85;;;;;;;;;;5098081;28;20410;-82
2022/05/02 01:56:41;;;;;;;6.07;4.10;;;;;;;;;;5098436;28;20031;-82
2022/05/02 01:59:07;;;;;;;6.15;4.28;;;;;;;;;;5098272;28;20073;-82
2022/05/02 02:01:34;;;;;;;7.40;4.55;;;;;;;;;;5098128;28;20719;-82
2022/05/02 02:04:00;;;;;;;4.65;3.95;;;;;;;;;;5098089;28;20044;-82
2022/05/02 02:06:26;;;;;;;7.38;4.28;;;;;;;;;;5096946;28;20111;-82
2022/05/02 02:08:53;;;;;;;6.85;3.95;;;;;;;;;;5097870;28;20024;-82
2022/05/02 02:11:19;;;;;;;8.00;4.47;;;;;;;;;;5098192;28;20031;-82
2022/05/02 02:13:45;;;;;;;6.50;4.38;;;;;;;;;;5098189;28;20102;-82
2022/05/02 02:16:13;;;;;;;6.82;4.30;;;;;;;;;;5098022;28;20035;-83
2022/05/02 02:18:40;;;;;;;8.75;4.32;;;;;;;;;;5097824;28;20021;-82
2022/05/02 02:21:07;;;;;;;7.50;4.72;;;;;;;;;;5097637;28;20050;-83
2022/05/02 02:23:33;;;;;;;5.75;4.10;;;;;;;;;;5097988;28;20024;-82
2022/05/02 02:25:59;;;;;;;5.55;3.70;;;;;;;;;;5097846;28;20027;-82
2022/05/02 02:28:25;;;;;;;5.68;4.18;;;;;;;;;;5096832;28;20020;-83
2022/05/02 02:30:51;;;;;;;49.55;22.17;;;;;;;;;;5097878;28;20036;-82
2022/05/02 02:33:17;;;;;;;48.88;23.70;;;;;;;;;;5097715;28;20035;-83
2022/05/02 02:35:44;;;;;;;12.93;8.18;;;;;;;;;;5097776;28;20066;-83
2022/05/02 02:38:12;;;;;;;10.27;5.60;;;;;;;;;;5096773;28;20506;-82
2022/05/02 02:40:38;;;;;;;7.35;4.93;;;;;;;;;;5097476;28;20028;-83
2022/05/02 02:43:06;;;;;;;6.97;4.95;;;;;;;;;;5097504;28;20020;-83
2022/05/02 02:45:32;;;;;;;6.15;4.70;;;;;;;;;;5097872;28;20070;-83
2022/05/02 02:47:58;;;;;;;5.80;4.07;;;;;;;;;;5097471;28;20017;-83
2022/05/02 02:50:24;;;;;;;8.05;4.55;;;;;;;;;;5096161;28;20044;-83
2022/05/02 02:52:50;;;;;;;7.53;4.90;;;;;;;;;;5097236;28;20036;-83
2022/05/02 02:55:16;;;;;;;9.30;5.13;;;;;;;;;;5097549;28;20032;-83
2022/05/02 02:57:42;;;;;;;8.25;5.43;;;;;;;;;;5097355;28;20405;-83
2022/05/02 03:00:09;;;;;;;8.60;5.10;;;;;;;;;;5097615;28;20028;-83
2022/05/02 03:02:38;;;;;;;11.98;4.82;;;;;;;;;;5096316;28;20085;-83
2022/05/02 03:07:49;;;;;;;7.13;4.78;;;;;;;;;;5097595;28;20067;-83
2022/05/02 03:10:15;;;;;;;7.03;4.72;;;;;;;;;;5097366;28;20375;-83
2022/05/02 03:12:41;;;;;;;6.70;4.72;;;;;;;;;;5097537;28;20029;-83
2022/05/02 03:15:08;;;;;;;6.40;4.40;;;;;;;;;;5096422;28;20318;-83
2022/05/02 03:17:34;;;;;;;5.25;4.00;;;;;;;;;;5097017;28;20024;-83
2022/05/02 03:20:00;;;;;;;8.25;4.20;;;;;;;;;;5097301;28;20035;-83
2022/05/02 03:22:26;;;;;;;7.25;4.70;;;;;;;;;;5096137;28;20433;-82
2022/05/02 03:24:52;;;;;;;6.88;5.03;;;;;;;;;;5096924;28;20390;-83
2022/05/02 03:27:18;;;;;;;7.28;4.32;;;;;;;;;;5097168;28;20491;-83
2022/05/02 03:29:44;;;;;;;7.00;4.50;;;;;;;;;;5097024;28;20025;-83
2022/05/02 03:32:10;;;;;;;6.10;4.57;;;;;;;;;;5097358;28;20063;-83
2022/05/02 03:34:36;;;;;;;7.13;4.68;;;;;;;;;;5097269;28;20418;-82
2022/05/02 03:37:02;;;;;;;7.45;4.00;;;;;;;;;;5097223;28;20028;-83
2022/05/02 03:39:28;;;;;;;7.68;4.55;;;;;;;;;;5095966;28;20030;-83
2022/05/02 03:41:54;;;;;;;6.85;4.68;;;;;;;;;;5097052;28;20023;-82
2022/05/02 03:44:21;;;;;;;8.02;4.72;;;;;;;;;;5096240;28;20028;-83
2022/05/02 03:46:47;;;;;;;7.55;4.80;;;;;;;;;;5097046;28;20021;-83
2022/05/02 03:49:13;;;;;;;6.78;4.55;;;;;;;;;;5096699;28;20051;-83
2022/05/02 03:51:39;;;;;;;8.40;5.22;;;;;;;;;;5097141;28;20040;-83
2022/05/02 03:54:05;;;;;;;6.78;4.90;;;;;;;;;;5095926;28;20023;-83
2022/05/02 03:56:31;;;;;;;8.65;4.95;;;;;;;;;;5096882;28;20035;-83
2022/05/02 03:58:57;;;;;;;5.50;4.75;;;;;;;;;;5096642;28;20016;-83
2022/05/02 04:01:23;;;;;;;7.47;4.78;;;;;;;;;;5096802;28;20477;-83
2022/05/02 04:03:49;;;;;;;5.55;4.78;;;;;;;;;;5098393;28;20107;-83
2022/05/02 04:06:15;;;;;;;6.57;5.28;;;;;;;;;;5100548;28;20104;-83
2022/05/02 04:08:41;;;;;;;5.68;4.53;;;;;;;;;;5100450;28;20123;-83
2022/05/02 04:11:08;;;;;;;8.07;5.10;;;;;;;;;;5100191;28;20118;-83
2022/05/02 04:13:34;;;;;;;6.20;4.60;;;;;;;;;;5100144;28;20034;-83
2022/05/02 04:16:00;;;;;;;6.85;4.50;;;;;;;;;;5099411;28;20032;-83
2022/05/02 04:18:26;;;;;;;7.00;4.88;;;;;;;;;;5100159;28;20133;-83
2022/05/02 04:20:52;;;;;;;9.70;4.57;;;;;;;;;;5100281;28;20027;-89
2022/05/02 04:23:18;;;;;;;7.63;4.90;;;;;;;;;;5100374;28;20104;-88
2022/05/02 04:25:44;;;;;;;7.53;4.70;;;;;;;;;;5100181;28;20035;-87
2022/05/02 04:28:11;;;;;;;6.47;4.60;;;;;;;;;;5114469;28;20027;-88
2022/05/02 04:30:38;;;;;;;5.70;4.30;;;;;;;;;;5120995;28;20028;-88
2022/05/02 04:33:04;;;;;;;6.45;4.28;;;;;;;;;;5119595;28;20023;-88
2022/05/02 04:35:30;;;;;;;5.97;4.80;;;;;;;;;;5120352;28;20145;-87
2022/05/02 04:37:58;;;;;;;7.28;4.68;;;;;;;;;;5119568;28;20076;-88
2022/05/02 04:40:24;;;;;;;5.82;4.38;;;;;;;;;;5105781;28;20024;-88
2022/05/02 04:42:50;;;;;;;7.80;5.32;;;;;;;;;;5100102;28;20024;-88
2022/05/02 04:45:16;;;;;;;7.78;4.28;;;;;;;;;;5099905;28;20111;-87
2022/05/02 04:47:42;;;;;;;6.25;4.88;;;;;;;;;;5099593;28;20032;-88
2022/05/02 04:50:09;;;;;;;7.30;4.88;;;;;;;;;;5099755;28;20048;-88
2022/05/02 04:52:35;;;;;;;8.38;4.68;;;;;;;;;;5098915;28;20493;-88
2022/05/02 04:55:20;;;;;;;6.13;4.95;;;;;;;;;;5099153;28;20040;-87
2022/05/02 04:57:46;;;;;;;5.20;4.50;;;;;;;;;;5099788;28;20024;-87
2022/05/02 05:00:14;;;;;;;5.97;5.00;;;;;;;;;;5099902;28;20073;-88
2022/05/02 05:02:40;;;;;;;7.22;5.32;;;;;;;;;;5099242;28;20043;-87
2022/05/02 05:05:07;;;;;;;9.95;6.43;;;;;;;;;;5099798;28;20020;-87
2022/05/02 05:07:33;;;;;;;9.35;6.30;;;;;;;;;;5099306;28;20027;-88
2022/05/02 05:09:59;;;;;;;9.15;6.97;;;;;;;;;;5098884;28;20027;-88
2022/05/02 05:12:28;;;;;;;8.55;6.00;;;;;;;;;;5113282;28;20042;-88
2022/05/02 05:17:58;;;;;;;9.73;5.22;;;;;;;;;;5103090;28;20136;-87
2022/05/02 05:20:27;;;;;;;8.02;5.20;;;;;;;;;;5099441;28;20060;-88
2022/05/02 05:22:53;;;;;;;11.50;6.00;;;;;;;;;;5119198;28;20015;-88
2022/05/02 05:25:33;;;;;;;7.78;5.00;;;;;;;;;;5118649;28;20028;-88
2022/05/02 05:28:08;;;;;;;7.28;4.60;;;;;;;;;;5115731;28;20020;-87
2022/05/02 05:30:41;;;;;;;11.27;5.63;;;;;;;;;;5117865;28;20349;-88
2022/05/02 05:33:09;;;;;;;6.88;4.95;;;;;;;;;;5099234;28;20028;-87
2022/05/02 05:35:54;;;;;;;7.25;5.05;;;;;;;;;;5098192;28;20028;-87
2022/05/02 05:38:46;;;;;;;6.55;4.18;;;;;;;;;;5098987;28;20432;-88
2022/05/02 05:41:31;;;;;;;6.35;4.38;;;;;;;;;;5077600;28;20058;-88
2022/05/02 05:43:57;;;;;;;6.38;4.30;;;;;;;;;;5060218;28;20078;-88
2022/05/02 05:46:35;;;;;;;6.03;4.38;;;;;;;;;;5072746;28;20025;-87
2022/05/02 05:49:01;;;;;;;7.22;4.70;;;;;;;;;;5062663;28;20438;-87
2022/05/02 05:51:35;;;;;;;8.20;4.32;;;;;;;;;;5084430;28;20036;-87
2022/05/02 06:00:07;;;;;;;6.55;3.38;;;;;;;;;;5085848;28;20039;-87
2022/05/02 06:02:39;;;;;;;7.95;4.53;;;;;;;;;;5091599;28;20032;-89
2022/05/02 06:05:08;;;;;;;6.00;4.20;;;;;;;;;;5078329;28;20365;-87
2022/05/02 06:07:34;;;;;;;4.78;3.80;;;;;;;;;;5066075;28;20345;-87
2022/05/02 06:10:01;;;;;;;6.32;3.53;;;;;;;;;;5070963;28;20047;-88
2022/05/02 06:12:29;;;;;;;6.22;3.60;;;;;;;;;;5077537;28;20040;-88
2022/05/02 06:20:36;;;;;;;8.15;3.50;;;;;;;;;;5068973;28;20044;-87
2022/05/02 06:23:03;;;;;;;4.90;3.47;;;;;;;;;;5068659;28;20067;-88
2022/05/02 06:25:30;;;;;;;6.45;3.17;;;;;;;;;;5067712;28;20033;-87
2022/05/02 06:27:56;;;;;;;6.47;3.63;;;;;;;;;;5060707;28;20048;-88
2022/05/02 06:30:23;;;;;;;7.88;5.03;;;;;;;;;;5070007;28;20078;-89
2022/05/02 06:32:51;;;;;;;4.60;2.97;;;;;;;;;;5058835;28;20107;-88
2022/05/02 06:35:20;;;;;;;6.07;3.15;;;;;;;;;;5071756;28;20078;-88
2022/05/02 06:37:46;;;;;;;5.35;2.92;;;;;;;;;;5059313;28;20032;-88
2022/05/02 06:40:27;;;;;;;6.20;3.47;;;;;;;;;;5075733;28;20032;-88
2022/05/02 06:42:59;;;;;;;5.35;3.13;;;;;;;;;;5073980;28;20058;-89
2022/05/02 06:45:25;;;;;;;;;;;;;;;;;;5076441;28;20036;-88
2022/05/02 06:47:59;;;;;;;4.85;2.85;;;;;;;;;;5058759;28;19908;-89
2022/05/02 06:50:26;;;;;;;6.13;3.40;;;;;;;;;;5065526;28;20045;-88
2022/05/02 06:53:00;;;;;;;3.65;3.13;;;;;;;;;;5055442;28;20100;-88
2022/05/02 06:58:49;;;;;;;18.42;15.25;;;;;;;;;;5094248;28;20068;-88
2022/05/02 07:01:24;;;;;;;6.13;4.03;;;;;;;;;;5096628;28;20032;-88
2022/05/02 07:03:50;;;;;;;5.47;3.13;;;;;;;;;;5100216;28;20016;-89
2022/05/02 07:06:30;;;;;;;9.82;4.22;;;;;;;;;;5117073;28;20059;-89
2022/05/02 07:09:04;;;;;;;4.75;2.90;;;;;;;;;;5118008;28;20024;-87
2022/05/02 07:17:41;;;;;;;4.80;2.83;;;;;;;;;;5106595;28;20076;-88
2022/05/02 07:20:09;;;;;;;7.05;3.60;;;;;;;;;;5104439;28;20093;-87
2022/05/02 07:22:37;;;;;;;5.40;2.47;;;;;;;;;;5096618;28;20070;-87
2022/05/02 07:25:22;;;;;;;5.43;2.70;;;;;;;;;;5118345;28;20032;-89
2022/05/02 07:27:57;;;;;;;8.45;2.70;;;;;;;;;;5114091;28;20032;-87
2022/05/02 07:30:24;;;;;;;4.72;2.20;;;;;;;;;;5098285;28;20031;-86
2022/05/02 07:32:53;;;;;;;6.25;3.20;;;;;;;;;;5105881;28;20063;-86
2022/05/02 07:35:21;;;;;;;4.65;2.80;;;;;;;;;;5114098;28;20036;-87
2022/05/02 07:37:48;;;;;;;6.10;3.33;;;;;;;;;;5105310;28;20329;-88
2022/05/02 07:43:18;;;;;;;6.82;3.50;;;;;;;;;;5102511;28;20077;-88
2022/05/02 07:45:44;;;;;;;6.82;2.97;;;;;;;;;;5117918;28;20032;-87
2022/05/02 07:48:11;;;;;;;6.30;2.88;;;;;;;;;;5103277;28;20131;-88
2022/05/02 07:50:37;;;;;;;4.85;2.58;;;;;;;;;;5100705;28;20068;-87
2022/05/02 07:53:06;;;;;;;4.55;3.33;;;;;;;;;;5100990;28;20082;-88
2022/05/02 07:55:33;;;;;;;6.75;3.08;;;;;;;;;;5102198;28;20055;-87
2022/05/02 07:58:01;;;;;;;8.88;2.92;;;;;;;;;;5121218;28;20028;-87
2022/05/02 08:00:30;;;;;;;4.72;3.15;;;;;;;;;;5115120;28;20028;-87
2022/05/02 08:02:56;;;;;;;7.03;3.63;;;;;;;;;;5112106;28;20059;-87
2022/05/02 08:05:26;;;;;;;6.57;3.65;;;;;;;;;;5119413;28;20020;-88
2022/05/02 08:07:54;;;;;;;8.90;3.15;;;;;;;;;;5105376;28;20032;-90
2022/05/02 08:10:39;;;;;;;7.70;3.45;;;;;;;;;;5102278;28;20039;-88
2022/05/02 08:13:20;;;;;;;8.32;4.00;;;;;;;;;;5101094;28;20020;-88
2022/05/02 08:15:46;;;;;;;5.90;3.30;;;;;;;;;;5108010;28;20019;-87
2022/05/02 08:18:27;;;;;;;7.07;3.55;;;;;;;;;;5114199;28;20695;-88
2022/05/02 08:20:53;;;;;;;9.40;3.30;;;;;;;;;;5119813;27;20027;-88
2022/05/02 08:29:23;;;;;;;4.93;3.03;;;;;;;;;;5120711;28;20039;-88
2022/05/02 08:32:10;;;;;;;6.60;3.80;;;;;;;;;;5120949;28;20035;-88
2022/05/02 08:34:39;;;;;;;4.38;3.22;;;;;;;;;;5119800;28;20055;-87
2022/05/02 08:37:24;;;;;;;5.22;3.42;;;;;;;;;;5121104;28;20019;-88
2022/05/02 08:40:10;;;;;;;5.85;3.55;;;;;;;;;;5100948;28;20036;-87
2022/05/02 08:42:55;;;;;;;7.15;3.30;;;;;;;;;;5120585;28;20027;-86
2022/05/02 08:45:23;;;;;;;11.40;4.00;;;;;;;;;;5120421;28;20024;-88
2022/05/02 08:47:59;;;;;;;9.75;4.25;;;;;;;;;;5119248;28;20019;-84
2022/05/02 08:50:34;;;;;;;5.07;3.63;;;;;;;;;;5099111;28;20048;-84
2022/05/02 08:53:06;;;;;;;6.32;3.25;;;;;;;;;;5099562;28;20052;-84
2022/05/02 08:55:39;;;;;;;8.63;3.17;;;;;;;;;;5099557;28;20028;-84
2022/05/02 08:58:23;;;;;;;25.08;7.47;;;;;;;;;;5099427;28;20102;-85
2022/05/02 09:01:00;;;;;;;14.82;4.38;;;;;;;;;;5098444;28;20051;-85
2022/05/02 09:03:26;;;;;;;44.97;7.97;;;;;;;;;;5099233;28;20028;-84
2022/05/02 09:06:02;;;;;;;7.65;4.03;;;;;;;;;;5102676;28;20028;-84
2022/05/02 09:08:52;;;;;;;11.27;7.28;;;;;;;;;;5098233;28;20020;-84
2022/05/02 09:11:34;;;;;;;6.13;2.72;;;;;;;;;;5099213;28;20024;-85
2022/05/02 09:14:18;;;;;;;7.72;3.92;;;;;;;;;;5099116;28;20024;-85
2022/05/02 09:16:56;;;;;;;7.25;4.10;;;;;;;;;;5099109;28;20035;-85
2022/05/02 09:19:22;;;;;;;3.63;2.20;;;;;;;;;;5097960;28;20032;-85
2022/05/02 09:21:48;;;;;;;7.70;4.38;;;;;;;;;;5097962;28;20024;-85
2022/05/02 09:24:17;;;;;;;3.60;2.22;;;;;;;;;;5099060;28;20420;-85
2022/05/02 09:26:57;;;;;;;9.90;5.35;;;;;;;;;;5098950;28;20028;-85
2022/05/02 09:29:41;;;;;;;4.93;2.45;;;;;;;;;;5099093;28;20283;-84
2022/05/02 09:32:26;;;;;;;6.95;3.03;;;;;;;;;;5098868;28;20031;-85
2022/05/02 09:34:57;;;;;;;5.32;2.47;;;;;;;;;;5098728;28;20016;-85
2022/05/02 09:37:38;;;;;;;4.73;2.83;;;;;;;;;;5098894;28;20085;-85
2022/05/02 09:40:04;;;;;;;3.50;2.20;;;;;;;;;;5098798;28;20350;-84
2022/05/02 09:42:33;;;;;;;2.67;2.00;;;;;;;;;;5098916;28;20408;-85
2022/05/02 09:50:45;;;;;;;10.32;6.93;;;;;;;;;;5098273;28;20092;-84
2022/05/02 09:53:15;;;;;;;3.67;2.28;;;;;;;;;;5097468;28;20426;-85
2022/05/02 09:58:32;;;;;;;6.03;3.75;;;;;;;;;;5098451;28;20035;-85
2022/05/02 10:01:07;;;;;;;7.30;2.28;;;;;;;;;;5097736;28;20338;-85
2022/05/02 10:03:40;;;;;;;5.68;3.47;;;;;;;;;;5098232;28;20441;-85
2022/05/02 10:06:09;;;;;;;9.50;4.07;;;;;;;;;;5098236;28;20039;-85
2022/05/02 10:08:49;;;;;;;15.77;8.90;;;;;;;;;;5098058;28;20138;-84
2022/05/02 10:11:15;;;;;;;12.25;3.88;;;;;;;;;;5098051;28;20028;-85
2022/05/02 10:14:11;;;;;;;18.23;7.10;;;;;;;;;;5098293;28;20028;-85
2022/05/02 10:16:57;;;;;;;6.72;2.17;;;;;;;;;;5075930;28;20040;-84
2022/05/02 10:19:38;;;;;;;10.80;4.18;;;;;;;;;;5075977;28;20037;-84
2022/05/02 10:22:08;;;;;;;10.55;5.03;;;;;;;;;;5076043;28;20100;-84
2022/05/02 10:25:01;;;;;;;7.95;2.88;;;;;;;;;;5059552;28;20131;-84
2022/05/02 10:28:06;;;;;;;3.28;1.90;;;;;;;;;;5075852;28;20029;-85
2022/05/02 10:30:42;;;;;;;4.68;2.10;;;;;;;;;;5016248;28;20040;-86
2022/05/02 10:33:13;;;;;;;3.75;2.03;;;;;;;;;;5016621;28;20494;-86
2022/05/02 10:35:41;;;;;;;8.40;2.20;;;;;;;;;;5016518;28;20044;-86
2022/05/02 10:38:09;;;;;;;6.07;2.30;;;;;;;;;;5016425;28;20030;-86
2022/05/02 10:40:42;;;;;;;4.82;3.17;;;;;;;;;;4999677;28;20084;-86
2022/05/02 10:43:09;;;;;;;5.30;3.47;;;;;;;;;;5016242;28;20107;-86
2022/05/02 10:45:36;;;;;;;5.78;3.10;;;;;;;;;;5016082;28;20057;-85
2022/05/02 10:48:21;;;;;;;5.35;2.42;;;;;;;;;;5016339;28;20089;-86
2022/05/02 10:51:05;;;;;;;7.22;2.45;;;;;;;;;;5016161;28;20041;-86
2022/05/02 10:53:31;;;;;;;5.65;2.97;;;;;;;;;;5030536;28;20038;-86
2022/05/02 10:56:00;;;;;;;7.80;3.05;;;;;;;;;;5035665;28;20034;-86
2022/05/02 10:58:29;;;;;;;3.58;2.58;;;;;;;;;;5035874;28;20080;-85
2022/05/02 11:00:58;;;;;;;4.22;2.30;;;;;;;;;;5058464;28;20093;-85
2022/05/02 11:03:34;;;;;;;3.15;2.20;;;;;;;;;;5097863;28;20024;-86
2022/05/02 11:06:18;;;;;;;9.20;5.70;;;;;;;;;;5097682;28;20013;-85
2022/05/02 11:08:53;;;;;;;11.75;5.55;;;;;;;;;;5096892;28;20020;-86
2022/05/02 11:11:39;;;;;;;9.65;4.43;;;;;;;;;;5097615;28;20317;-85
2022/05/02 11:14:25;;;;;;;10.48;7.15;;;;;;;;;;5101649;28;20485;-86
2022/05/02 11:17:03;;;;;;;5.47;3.03;;;;;;;;;;5117324;28;20071;-86
2022/05/02 11:22:30;;;;;;;4.32;2.35;;;;;;;;;;5101723;28;20070;-85
2022/05/02 11:24:59;;;;;;;2.97;2.30;;;;;;;;;;5100679;28;20518;-86
2022/05/02 11:27:44;;;;;;;5.05;2.85;;;;;;;;;;5101613;28;20393;-85
2022/05/02 11:30:12;;;;;;;3.47;1.80;;;;;;;;;;5101864;28;20104;-86
2022/05/02 11:32:38;;;;;;;4.10;2.00;;;;;;;;;;5100524;28;20032;-85
2022/05/02 11:35:11;;;;;;;2.97;1.88;;;;;;;;;;5101524;28;20074;-85
2022/05/02 11:37:55;;;;;;;8.75;4.25;;;;;;;;;;5101460;28;20471;-86
2022/05/02 11:40:33;;;;;;;3.05;2.25;;;;;;;;;;5101171;28;20043;-85
2022/05/02 11:42:59;;;;;;;8.38;4.28;;;;;;;;;;5100372;28;20062;-86
2022/05/02 11:45:31;;;;;;;4.53;2.92;;;;;;;;;;5100093;28;20031;-86
2022/05/02 11:47:57;;;;;;;;;;;;;;;;;;5101480;28;20065;-86
2022/05/02 11:50:24;;;;;;;6.43;3.20;;;;;;;;;;5100822;28;19920;-85
2022/05/02 11:52:59;;;;;;;7.28;2.63;;;;;;;;;;5101103;28;20024;-86
2022/05/02 11:55:33;;;;;;;4.43;2.80;;;;;;;;;;5100895;28;20077;-85
2022/05/02 11:58:03;;;;;;;8.35;5.85;;;;;;;;;;5099998;28;20433;-85
2022/05/02 12:00:34;;;;;;;15.25;10.02;;;;;;;;;;5100714;28;20024;-85
2022/05/02 12:03:03;;;;;;;25.27;16.48;;;;;;;;;;5100887;28;20035;-86
2022/05/02 12:05:31;;;;;;;10.35;5.00;;;;;;;;;;5100992;28;20024;-85
2022/05/02 12:08:02;;;;;;;8.27;4.05;;;;;;;;;;5100642;28;20043;-86
2022/05/02 12:10:38;;;;;;;9.70;4.75;;;;;;;;;;5100813;28;20106;-86
2022/05/02 12:13:05;;;;;;;3.95;2.10;;;;;;;;;;5099538;28;20501;-85
2022/05/02 12:15:31;;;;;;;5.00;3.20;;;;;;;;;;5099593;28;20032;-86
2022/05/02 12:18:03;;;;;;;3.45;1.90;;;;;;;;;;5100504;28;20024;-86
2022/05/02 12:20:31;;;;;;;3.78;2.13;;;;;;;;;;5100446;28;20169;-86
2022/05/02 12:23:02;;;;;;;4.57;2.78;;;;;;;;;;5100274;28;20016;-86
2022/05/02 12:25:28;;;;;;;5.07;2.93;;;;;;;;;;5099676;28;20146;-86
2022/05/02 12:27:55;;;;;;;7.72;4.20;;;;;;;;;;5100366;28;20023;-86
2022/05/02 12:30:22;;;;;;;5.15;2.97;;;;;;;;;;5100250;28;20322;-86
2022/05/02 12:32:50;;;;;;;17.10;10.95;;;;;;;;;;5100185;28;20036;-86
2022/05/02 12:35:18;;;;;;;3.88;2.55;;;;;;;;;;5099244;28;20437;-86
2022/05/02 12:37:46;;;;;;;7.80;3.90;;;;;;;;;;5099927;28;20035;-86
2022/05/02 12:40:14;;;;;;;5.55;2.50;;;;;;;;;;5098837;28;20028;-86
2022/05/02 12:42:44;;;;;;;6.63;3.05;;;;;;;;;;5099913;28;20027;-86
2022/05/02 12:45:13;;;;;;;3.92;2.72;;;;;;;;;;5100074;28;20322;-86
2022/05/02 12:47:46;;;;;;;15.05;8.65;;;;;;;;;;5099981;28;20029;-86
2022/05/02 12:50:16;;;;;;;4.13;2.15;;;;;;;;;;5099677;28;20040;-86
2022/05/02 12:52:44;;;;;;;5.43;2.70;;;;;;;;;;5098671;28;20084;-86
2022/05/02 12:55:10;;;;;;;3.67;2.72;;;;;;;;;;5099855;28;20016;-86
2022/05/02 13:00:31;;;;;;;7.40;3.85;;;;;;;;;;5100132;28;20047;-86
2022/05/02 13:02:57;;;;;;;;;;;;;;;;;;5100029;28;20100;-86
2022/05/02 13:05:24;;;;;;;5.25;2.47;;;;;;;;;;5099731;28;19943;-86
2022/05/02 13:07:54;;;;;;;6.55;2.20;;;;;;;;;;5099641;28;20461;-86
2022/05/02 13:10:24;;;;;;;4.97;2.50;;;;;;;;;;5099498;28;20028;-86
2022/05/02 13:13:02;;;;;;;3.40;1.80;;;;;;;;;;5099344;28;20107;-86
2022/05/02 13:15:30;;;;;;;3.85;2.30;;;;;;;;;;5099427;28;20027;-86
2022/05/02 13:18:01;;;;;;;4.32;2.47;;;;;;;;;;5099334;28;20020;-86
2022/05/02 13:20:28;;;;;;;5.38;3.28;;;;;;;;;;5099464;28;20052;-86
2022/05/02 13:23:00;;;;;;;5.68;2.42;;;;;;;;;;5098090;28;20034;-86
2022/05/02 13:25:45;;;;;;;8.43;2.60;;;;;;;;;;5099325;28;20027;-86
2022/05/02 13:28:16;;;;;;;6.78;3.00;;;;;;;;;;5099078;28;20035;-86
2022/05/02 13:30:46;;;;;;;5.03;2.97;;;;;;;;;;5097958;28;20445;-86
2022/05/02 13:33:13;;;;;;;7.63;3.00;;;;;;;;;;5099157;28;20032;-86
2022/05/02 13:35:41;;;;;;;5.80;2.90;;;;;;;;;;5097992;28;20019;-86
2022/05/02 13:38:19;;;;;;;4.57;3.28;;;;;;;;;;5097847;28;20042;-86
2022/05/02 13:40:58;;;;;;;5.57;3.63;;;;;;;;;;5098669;28;20036;-85
2022/05/02 13:43:30;;;;;;;2.70;2.20;;;;;;;;;;5098941;28;20039;-85
2022/05/02 13:45:59;;;;;;;3.88;2.10;;;;;;;;;;5098638;28;20024;-86
2022/05/02 13:48:26;;;;;;;3.75;2.08;;;;;;;;;;5097368;28;20028;-85
2022/05/02 13:50:58;;;;;;;5.07;2.58;;;;;;;;;;5097756;28;20082;-86
2022/05/02 13:53:33;;;;;;;7.35;3.08;;;;;;;;;;5097569;28;20077;-86
2022/05/02 13:56:18;;;;;;;6.40;2.45;;;;;;;;;;5097839;28;20071;-86
2022/05/02 13:59:04;;;;;;;7.25;3.08;;;;;;;;;;5098492;28;20317;-86
2022/05/02 14:01:57;;;;;;;2.83;2.10;;;;;;;;;;5098388;28;20047;-86
2022/05/02 14:07:09;;;;;;;4.90;2.65;;;;;;;;;;5098603;28;20025;-87
2022/05/02 14:09:41;;;;;;;3.25;2.35;;;;;;;;;;5098524;28;20020;-87
2022/05/02 14:12:28;;;;;;;5.93;3.42;;;;;;;;;;5097033;28;20031;-87
2022/05/02 14:15:05;;;;;;;9.98;4.88;;;;;;;;;;5098046;28;20016;-87
2022/05/02 14:17:36;;;;;;;11.65;4.60;;;;;;;;;;5097020;28;20044;-85
2022/05/02 14:20:11;;;;;;;8.82;3.92;;;;;;;;;;5097986;28;20028;-87
2022/05/02 14:22:37;;;;;;;5.25;2.92;;;;;;;;;;5098089;28;20054;-87
2022/05/02 14:25:04;;;;;;;5.43;2.42;;;;;;;;;;5097892;28;20099;-86
2022/05/02 14:27:32;;;;;;;4.53;2.40;;;;;;;;;;5098197;28;20032;-87
2022/05/02 14:30:06;;;;;;;5.07;2.42;;;;;;;;;;5097040;28;20036;-87
2022/05/02 14:32:42;;;;;;;3.63;2.28;;;;;;;;;;5097924;28;20024;-87
2022/05/02 14:35:09;;;;;;;5.47;2.20;;;;;;;;;;5097897;28;20046;-87
2022/05/02 14:37:38;;;;;;;6.35;2.60;;;;;;;;;;5097911;28;20030;-87
2022/05/02 14:40:04;;;;;;;3.83;1.92;;;;;;;;;;5097768;28;20027;-86
2022/05/02 14:42:31;;;;;;;5.40;2.58;;;;;;;;;;5098067;28;20020;-88
2022/05/02 14:44:59;;;;;;;8.23;2.50;;;;;;;;;;5097818;28;20020;-87
2022/05/02 14:47:25;;;;;;;6.85;2.35;;;;;;;;;;5097436;28;20047;-87
2022/05/02 14:49:55;;;;;;;6.32;2.30;;;;;;;;;;5097624;28;20233;-87
2022/05/02 14:52:23;;;;;;;3.78;2.15;;;;;;;;;;5097723;28;20028;-87
2022/05/02 14:54:51;;;;;;;4.68;2.67;;;;;;;;;;5097584;28;20024;-86
2022/05/02 14:57:20;;;;;;;5.13;3.88;;;;;;;;;;5097935;28;20035;-86
2022/05/02 14:59:47;;;;;;;7.32;4.32;;;;;;;;;;5097832;28;20032;-87
2022/05/02 15:02:15;;;;;;;8.82;5.32;;;;;;;;;;5097524;28;20340;-86
2022/05/02 15:04:42;;;;;;;11.18;4.10;;;;;;;;;;5097596;28;20031;-86
2022/05/02 15:07:10;;;;;;;6.35;3.55;;;;;;;;;;5096615;28;20028;-86
2022/05/02 15:10:12;;;;;;;4.45;3.20;;;;;;;;;;5097884;28;20020;-86
2022/05/02 15:12:45;;;;;;;7.20;3.63;;;;;;;;;;5096743;28;20031;-86
2022/05/02 15:15:23;;;;;;;8.88;4.15;;;;;;;;;;5097581;28;20039;-86
2022/05/02 15:18:10;;;;;;;6.28;3.20;;;;;;;;;;5097886;28;20103;-86
2022/05/02 15:20:43;;;;;;;18.88;9.45;;;;;;;;;;5113295;28;20457;-86
2022/05/02 15:23:11;;;;;;;7.88;4.38;;;;;;;;;;5097597;28;20027;-86
2022/05/02 15:25:49;;;;;;;6.88;4.00;;;;;;;;;;5097449;28;20021;-87
2022/05/02 15:36:53;;;;;;;6.78;3.70;;;;;;;;;;5097646;28;20077;-87
2022/05/02 15:39:19;;;;;;;6.10;2.53;;;;;;;;;;5097122;28;20035;-87
2022/05/02 15:41:45;;;;;;;7.53;3.20;;;;;;;;;;5097119;28;20398;-86
2022/05/02 15:44:37;;;;;;;6.85;3.22;;;;;;;;;;5097248;28;20035;-87
2022/05/02 15:47:10;;;;;;;5.45;2.90;;;;;;;;;;5096165;28;20444;-86
2022/05/02 15:49:42;;;;;;;5.85;3.00;;;;;;;;;;5097227;28;20040;-86
2022/05/02 15:52:18;;;;;;;4.90;3.28;;;;;;;;;;5097352;28;20039;-86
2022/05/02 15:54:46;;;;;;;6.00;3.00;;;;;;;;;;5097361;28;20028;-86
2022/05/02 15:57:21;;;;;;;5.35;2.83;;;;;;;;;;5109732;28;20072;-87
2022/05/02 15:59:48;;;;;;;6.80;3.22;;;;;;;;;;5113632;28;20421;-86
2022/05/02 16:02:21;;;;;;;4.22;2.80;;;;;;;;;;5102468;28;20032;-85
2022/05/02 16:04:50;;;;;;;5.70;3.05;;;;;;;;;;5115015;28;20024;-86
2022/05/02 16:12:52;;;;;;;5.05;2.75;;;;;;;;;;5121239;28;20050;-85
2022/05/02 16:15:19;;;;;;;6.72;3.05;;;;;;;;;;5121014;28;20065;-86